createdAt,value
2022-08-15T00:15:37.193Z,2.00
2022-08-15T00:20:38.822Z,2.28
2022-08-15T00:25:48.369Z,1.95
2022-08-15T00:30:57.850Z,2.47
2022-08-15T00:35:55.686Z,2.28
2022-08-15T00:41:22.976Z,2.20
2022-08-15T00:51:55.639Z,2.35
2022-08-15T00:57:17.557Z,2.65
2022-08-15T01:07:23.897Z,2.95
2022-08-15T01:12:21.998Z,2.50
2022-08-15T01:22:48.542Z,3.10
2022-08-15T01:28:17.070Z,2.10
2022-08-15T01:33:10.169Z,2.47
2022-08-15T01:38:05.716Z,2.80
2022-08-15T01:43:26.170Z,2.33
2022-08-15T01:48:34.846Z,2.00
2022-08-15T01:53:58.527Z,1.85
2022-08-15T01:58:50.839Z,2.20
2022-08-15T02:03:52.118Z,2.30
2022-08-15T02:13:56.002Z,2.60
2022-08-15T02:23:56.235Z,2.78
2022-08-15T02:28:48.161Z,2.92
2022-08-15T02:33:43.382Z,3.15
2022-08-15T02:38:47.879Z,3.20
2022-08-15T02:43:44.495Z,3.20
2022-08-15T02:48:38.847Z,3.25
2022-08-15T02:53:32.569Z,3.33
2022-08-15T02:58:36.516Z,3.42
2022-08-15T03:03:33.876Z,3.08
2022-08-15T03:08:25.909Z,2.83
2022-08-15T03:13:18.469Z,3.22
2022-08-15T03:18:15.039Z,2.55
2022-08-15T03:23:41.442Z,2.40
2022-08-15T03:28:34.747Z,2.97
2022-08-15T03:33:55.978Z,3.08
2022-08-15T03:43:54.960Z,2.90
2022-08-15T03:54:00.561Z,3.00
2022-08-15T03:58:56.210Z,2.80
2022-08-15T05:32:39.517Z,2.65
2022-08-15T06:49:48.480Z,2.25
2022-08-15T06:54:44.636Z,2.47
2022-08-15T06:59:56.163Z,2.25
2022-08-15T07:05:10.030Z,2.35
2022-08-15T07:10:14.364Z,2.70
2022-08-15T07:15:38.850Z,2.05
2022-08-15T07:20:38.027Z,2.55
2022-08-15T07:25:33.575Z,2.08
2022-08-15T07:30:36.561Z,2.33
2022-08-15T07:35:34.856Z,2.65
2022-08-15T07:40:42.034Z,2.15
2022-08-15T07:45:47.937Z,2.13
2022-08-15T07:51:01.873Z,2.15
2022-08-15T07:56:46.770Z,2.10
2022-08-15T08:01:34.822Z,2.25
2022-08-15T08:06:51.125Z,1.90
2022-08-15T08:11:57.036Z,2.50
2022-08-15T08:17:04.266Z,2.30
2022-08-15T08:22:12.840Z,2.20
2022-08-15T08:27:47.077Z,2.30
2022-08-15T08:33:00.455Z,2.30
2022-08-15T08:39:03.634Z,2.42
2022-08-15T08:43:47.597Z,2.30
2022-08-15T08:49:17.079Z,2.30
2022-08-15T08:55:00.459Z,1.80
2022-08-15T10:20:20.322Z,1.60
2022-08-15T10:25:28.470Z,1.90
2022-08-15T10:30:44.680Z,1.90
2022-08-15T10:35:47.229Z,2.30
2022-08-15T23:50:32.660Z,1.92
2022-08-15T23:55:33.092Z,2.00
